createdAt,value
2023-03-31T00:01:36.202Z,98647.22
2023-03-31T00:04:06.428Z,98643.72
2023-03-31T00:06:39.062Z,98630.94
2023-03-31T00:09:11.720Z,98630.94
2023-03-31T00:11:40.741Z,98632.56
2023-03-31T00:14:10.611Z,98622.31
2023-03-31T00:16:40.630Z,98621.34
2023-03-31T00:19:18.044Z,98623.13
2023-03-31T00:21:47.997Z,98619.63
2023-03-31T00:24:17.369Z,98596.59
2023-03-31T00:26:46.374Z,98596.59
2023-03-31T00:29:15.490Z,98592.25
2023-03-31T00:31:44.350Z,98590.50
2023-03-31T00:34:14.380Z,98587.13
2023-03-31T00:36:47.376Z,98571.78
2023-03-31T00:39:19.076Z,98572.56
2023-03-31T00:41:47.916Z,98569.22
2023-03-31T00:44:22.780Z,98570.84
2023-03-31T00:46:56.329Z,98558.97
2023-03-31T00:49:34.477Z,98546.88
2023-03-31T00:52:09.029Z,98558.03
2023-03-31T00:54:39.313Z,98547.66
2023-03-31T00:57:09.186Z,98546.88
2023-03-31T00:59:42.214Z,98539.97
2023-03-31T01:02:11.652Z,98534.72
2023-03-31T01:04:47.661Z,98533.09
2023-03-31T01:07:23.111Z,98539.84
2023-03-31T01:09:55.557Z,98531.22
2023-03-31T01:12:25.515Z,98521.00
2023-03-31T01:14:54.870Z,98516.66
2023-03-31T01:17:25.280Z,98519.09
2023-03-31T01:20:13.938Z,98522.63
2023-03-31T01:23:36.931Z,98515.88
2023-03-31T01:26:43.692Z,98511.81
2023-03-31T01:29:32.069Z,98502.38
2023-03-31T01:32:42.893Z,98494.81
2023-03-31T01:35:39.518Z,98495.66
2023-03-31T01:39:10.536Z,98484.59
2023-03-31T01:41:55.230Z,98480.28
2023-03-31T01:44:33.382Z,98481.88
2023-03-31T01:47:08.106Z,98482.72
2023-03-31T01:49:44.456Z,98471.53
2023-03-31T01:52:22.710Z,98469.78
2023-03-31T01:54:57.345Z,98471.41
2023-03-31T01:57:34.014Z,98460.34
2023-03-31T02:00:12.160Z,98464.66
2023-03-31T02:02:50.585Z,98459.53
2023-03-31T02:05:25.880Z,98456.03
2023-03-31T02:08:00.119Z,98457.78
2023-03-31T02:10:32.910Z,98444.97
2023-03-31T02:13:04.164Z,98450.94
2023-03-31T02:15:38.361Z,98451.88
2023-03-31T02:18:12.176Z,98435.69
2023-03-31T02:20:46.241Z,98441.47
2023-03-31T02:23:18.962Z,98425.31
2023-03-31T02:25:52.609Z,98419.38
2023-03-31T02:28:26.304Z,98421.13
2023-03-31T02:31:14.418Z,98420.19
2023-03-31T02:33:43.523Z,98415.22
2023-03-31T02:36:12.426Z,98410.19
2023-03-31T02:38:47.794Z,98410.19
2023-03-31T02:41:16.455Z,98398.34
2023-03-31T02:43:46.443Z,98405.22
2023-03-31T02:46:15.207Z,98401.84
2023-03-31T02:48:48.057Z,98398.34
2023-03-31T02:52:02.244Z,98385.81
2023-03-31T02:55:12.548Z,98390.41
2023-03-31T02:58:28.448Z,98379.59
2023-03-31T03:01:16.683Z,98365.19
2023-03-31T03:04:00.851Z,98358.47
2023-03-31T03:06:42.976Z,98344.84
2023-03-31T03:09:37.047Z,98336.34
2023-03-31T03:12:16.612Z,98323.56
2023-03-31T03:14:52.463Z,98317.75
2023-03-31T03:17:28.031Z,98302.38
2023-03-31T03:20:02.084Z,98304.03
2023-03-31T03:22:30.709Z,98303.22
2023-03-31T03:24:59.354Z,98291.22
2023-03-31T03:27:28.431Z,98283.53
2023-03-31T03:29:57.289Z,98272.63
2023-03-31T03:32:27.258Z,98278.56
2023-03-31T03:34:55.996Z,98271.66
2023-03-31T03:37:24.639Z,98266.56
2023-03-31T03:39:53.253Z,98251.19
2023-03-31T03:42:21.939Z,98244.47
2023-03-31T03:44:50.919Z,98244.59
2023-03-31T03:47:19.529Z,98239.63
2023-03-31T03:49:49.839Z,98236.13
2023-03-31T03:52:18.506Z,98220.06
2023-03-31T03:54:47.146Z,98209.03
2023-03-31T03:57:15.845Z,98209.84
2023-03-31T03:59:44.535Z,98192.06
2023-03-31T04:02:13.526Z,98187.78
2023-03-31T04:04:42.227Z,98185.22
2023-03-31T04:07:12.310Z,98185.22
2023-03-31T04:09:40.967Z,98180.09
2023-03-31T04:12:09.760Z,98183.44
2023-03-31T04:14:39.186Z,98180.09
2023-03-31T04:17:07.823Z,98183.59
2023-03-31T04:19:36.414Z,98187.78
2023-03-31T04:22:05.139Z,98191.25
2023-03-31T04:24:38.811Z,98186.16
2023-03-31T04:27:08.398Z,98176.84
2023-03-31T04:29:37.295Z,98171.72
2023-03-31T04:32:06.888Z,98169.16
2023-03-31T04:34:38.225Z,98164.97
2023-03-31T04:37:10.768Z,98149.63
2023-03-31T04:39:40.857Z,98133.47
2023-03-31T04:42:09.695Z,98130.91
2023-03-31T04:44:38.301Z,98112.88
2023-03-31T04:47:07.184Z,98114.63
2023-03-31T04:49:36.894Z,98129.97
2023-03-31T04:52:06.214Z,98137.66
2023-03-31T04:54:34.861Z,98139.41
2023-03-31T04:57:05.025Z,98139.41
2023-03-31T04:59:33.727Z,98140.38
2023-03-31T05:02:02.496Z,98136.03
2023-03-31T05:04:31.256Z,98141.28
2023-03-31T05:06:59.896Z,98128.50
2023-03-31T05:09:28.509Z,98131.19
2023-03-31T05:11:58.101Z,98127.81
2023-03-31T05:14:28.146Z,98126.22
2023-03-31T05:16:59.417Z,98125.25
2023-03-31T05:19:28.285Z,98119.34
2023-03-31T05:21:57.215Z,98130.38
2023-03-31T05:24:26.031Z,98128.78
2023-03-31T05:26:54.718Z,98122.03
2023-03-31T05:29:23.742Z,98114.38
2023-03-31T05:31:54.447Z,98115.31
2023-03-31T05:34:23.100Z,98115.16
2023-03-31T05:36:53.986Z,98112.59
2023-03-31T05:39:23.115Z,98112.75
2023-03-31T05:41:52.038Z,98105.06
2023-03-31T05:44:20.821Z,98101.72
2023-03-31T05:46:49.583Z,98088.09
2023-03-31T05:49:19.862Z,98072.75
2023-03-31T05:51:48.983Z,98066.03
2023-03-31T05:54:17.572Z,98065.22
2023-03-31T05:56:46.249Z,98056.06
2023-03-31T05:59:15.246Z,98057.03
2023-03-31T06:01:44.108Z,98065.63
2023-03-31T06:04:12.795Z,98054.72
2023-03-31T06:06:44.411Z,98056.47
2023-03-31T06:09:13.538Z,98042.06
2023-03-31T06:11:42.226Z,98037.09
2023-03-31T06:14:10.878Z,98034.38
2023-03-31T06:16:39.662Z,98036.16
2023-03-31T06:19:08.564Z,98019.03
2023-03-31T06:21:37.460Z,98004.63
2023-03-31T06:24:08.319Z,97986.06
2023-03-31T06:26:36.972Z,97979.19
2023-03-31T06:29:05.746Z,97963.03
2023-03-31T06:31:34.644Z,97945.13
2023-03-31T06:34:03.275Z,97947.69
2023-03-31T06:36:32.023Z,97950.09
2023-03-31T06:39:00.672Z,97939.09
2023-03-31T06:41:30.766Z,97928.84
2023-03-31T06:43:59.437Z,97928.03
2023-03-31T06:46:28.195Z,97928.03
2023-03-31T06:48:56.883Z,97925.47
2023-03-31T06:51:25.668Z,97914.44
2023-03-31T06:53:54.295Z,97918.75
2023-03-31T06:56:23.078Z,97926.44
2023-03-31T06:58:53.030Z,97932.50
2023-03-31T07:01:21.718Z,97936.69
2023-03-31T07:03:50.521Z,97931.66
2023-03-31T07:06:19.263Z,97926.44
2023-03-31T07:08:48.225Z,97925.75
2023-03-31T07:11:16.907Z,97920.50
2023-03-31T07:13:45.530Z,97929.00
2023-03-31T07:16:15.720Z,97928.03
2023-03-31T07:18:45.313Z,97930.59
2023-03-31T07:21:14.118Z,97931.25
2023-03-31T07:23:43.021Z,97925.31
2023-03-31T07:26:11.850Z,97905.69
2023-03-31T07:28:40.559Z,97910.81
2023-03-31T07:31:15.526Z,97903.28
2023-03-31T07:33:46.532Z,97907.56
2023-03-31T07:36:15.894Z,97904.06
2023-03-31T07:38:49.174Z,97898.94
2023-03-31T07:41:21.433Z,97899.25
2023-03-31T07:43:51.050Z,97893.19
2023-03-31T07:46:24.395Z,97906.09
2023-03-31T07:48:55.255Z,97903.53
2023-03-31T07:51:27.303Z,97895.75
2023-03-31T07:53:56.006Z,97896.53
2023-03-31T07:56:26.480Z,97897.31
2023-03-31T07:58:57.785Z,97899.09
2023-03-31T08:01:29.900Z,97888.88
2023-03-31T08:03:59.204Z,97866.63
2023-03-31T08:06:29.153Z,97865.03
2023-03-31T08:08:58.539Z,97890.34
2023-03-31T08:11:27.594Z,97877.25
2023-03-31T08:13:56.208Z,97869.44
2023-03-31T08:16:24.946Z,97891.50
2023-03-31T08:18:54.985Z,97877.94
2023-03-31T08:21:24.687Z,97884.78
2023-03-31T08:23:55.924Z,97887.34
2023-03-31T08:26:25.811Z,97893.28
2023-03-31T08:28:54.853Z,97900.97
2023-03-31T08:31:27.417Z,97911.03
2023-03-31T08:33:57.950Z,97923.69
2023-03-31T08:36:27.705Z,97929.59
2023-03-31T08:38:56.594Z,97932.97
2023-03-31T08:41:37.659Z,97927.19
2023-03-31T08:44:11.814Z,97926.41
2023-03-31T08:46:42.174Z,97944.44
2023-03-31T08:49:18.098Z,97937.72
2023-03-31T08:51:51.524Z,97950.34
2023-03-31T08:54:31.855Z,97944.16
2023-03-31T08:57:01.869Z,97930.28
2023-03-31T08:59:33.147Z,97927.56
2023-03-31T09:02:19.041Z,97923.25
2023-03-31T09:05:21.303Z,97927.56
2023-03-31T09:07:58.284Z,97915.72
2023-03-31T09:10:42.708Z,97927.56
2023-03-31T09:13:45.740Z,97913.97
2023-03-31T09:16:17.133Z,97902.94
2023-03-31T09:18:47.206Z,97910.75
2023-03-31T09:21:24.471Z,97919.38
2023-03-31T09:23:59.895Z,97922.75
2023-03-31T09:26:37.492Z,97909.13
2023-03-31T09:29:15.570Z,97941.59
2023-03-31T09:31:45.643Z,97883.03
2023-03-31T09:34:18.575Z,97896.25
2023-03-31T09:36:48.592Z,97946.22
2023-03-31T09:39:17.422Z,97945.00
2023-03-31T09:41:49.275Z,97952.28
2023-03-31T09:44:33.798Z,97941.66
2023-03-31T09:47:10.925Z,97949.75
2023-03-31T09:49:42.095Z,97960.38
2023-03-31T09:52:31.698Z,97923.16
2023-03-31T09:55:02.676Z,97947.25
2023-03-31T09:57:34.608Z,97951.53
2023-03-31T10:00:13.682Z,97965.28
2023-03-31T10:02:45.942Z,97943.22
2023-03-31T10:05:36.400Z,97945.06
2023-03-31T10:08:27.975Z,97919.78
2023-03-31T10:10:59.863Z,97919.78
2023-03-31T10:13:36.364Z,97918.19
2023-03-31T10:16:08.461Z,97915.91
2023-03-31T10:18:39.350Z,97902.34
2023-03-31T10:21:23.375Z,97882.53
2023-03-31T10:23:54.955Z,97888.44
2023-03-31T10:26:28.089Z,97898.66
2023-03-31T10:28:57.128Z,97920.88
2023-03-31T10:31:28.874Z,97875.94
2023-03-31T10:33:59.655Z,97870.81
2023-03-31T10:36:30.288Z,97873.38
2023-03-31T10:39:00.627Z,97863.00
2023-03-31T10:41:31.371Z,97862.22
2023-03-31T10:44:01.489Z,97828.06
2023-03-31T10:46:48.026Z,97837.31
2023-03-31T10:49:22.225Z,97824.25
2023-03-31T10:51:53.901Z,97840.09
2023-03-31T10:54:24.194Z,97823.53
2023-03-31T10:56:56.173Z,97819.91
2023-03-31T10:59:40.870Z,97825.69
2023-03-31T11:02:53.684Z,97821.22
2023-03-31T11:05:28.665Z,97818.53
2023-03-31T11:08:20.187Z,97828.50
2023-03-31T11:11:10.570Z,97816.34
2023-03-31T11:13:46.846Z,97820.22
2023-03-31T11:16:26.613Z,97826.03
2023-03-31T11:19:13.120Z,97831.94
2023-03-31T11:21:59.160Z,97825.19
2023-03-31T11:24:45.569Z,97840.53
2023-03-31T11:27:36.418Z,97835.88
2023-03-31T11:30:12.213Z,97812.31
2023-03-31T11:32:58.608Z,97815.84
2023-03-31T11:35:47.378Z,97802.38
2023-03-31T11:38:34.534Z,97795.81
2023-03-31T11:41:08.052Z,97800.13
2023-03-31T11:43:45.444Z,97804.28
2023-03-31T11:46:20.572Z,97813.41
2023-03-31T11:48:57.361Z,97819.34
2023-03-31T11:51:29.913Z,97807.19
2023-03-31T11:54:02.623Z,97811.09
2023-03-31T11:56:38.176Z,97799.63
2023-03-31T11:59:10.607Z,97801.78
2023-03-31T12:01:47.192Z,97802.03
2023-03-31T12:04:33.694Z,97791.34
2023-03-31T12:07:16.827Z,97790.13
2023-03-31T12:10:03.167Z,97788.09
2023-03-31T12:12:34.997Z,97786.16
2023-03-31T12:15:15.877Z,97771.34
2023-03-31T12:17:49.986Z,97783.34
2023-03-31T12:20:30.021Z,97803.66
2023-03-31T12:23:01.621Z,97792.75
2023-03-31T12:25:44.800Z,97780.94
2023-03-31T12:28:13.881Z,97790.34
2023-03-31T12:30:45.528Z,97774.19
2023-03-31T12:33:21.716Z,97769.88
2023-03-31T12:36:10.803Z,97773.09
2023-03-31T12:38:58.648Z,97752.34
2023-03-31T12:41:34.347Z,97745.31
2023-03-31T12:44:35.643Z,97750.16
2023-03-31T12:47:37.635Z,97766.00
2023-03-31T12:50:34.990Z,97756.59
2023-03-31T12:53:15.073Z,97764.91
2023-03-31T12:55:47.205Z,97775.16
2023-03-31T12:58:42.273Z,97776.75
2023-03-31T13:01:18.065Z,97781.09
2023-03-31T13:03:54.882Z,97782.66
2023-03-31T13:06:54.544Z,97782.56
2023-03-31T13:09:47.276Z,97772.16
2023-03-31T13:12:19.785Z,97778.75
2023-03-31T13:14:53.892Z,97764.19
2023-03-31T13:17:27.233Z,97751.22
2023-03-31T13:20:13.220Z,97762.13
2023-03-31T13:22:45.944Z,97757.66
2023-03-31T13:25:49.723Z,97742.47
2023-03-31T13:28:39.307Z,97749.19
2023-03-31T13:31:09.307Z,97734.63
2023-03-31T13:33:47.665Z,97737.03
2023-03-31T13:37:12.223Z,97732.22
2023-03-31T13:40:12.493Z,97729.00
2023-03-31T13:43:18.764Z,97737.50
2023-03-31T13:46:08.495Z,97724.69
2023-03-31T13:48:48.017Z,97727.41
2023-03-31T13:51:39.270Z,97726.72
2023-03-31T13:54:56.681Z,97713.28
2023-03-31T13:58:25.496Z,97711.84
2023-03-31T14:01:22.890Z,97725.56
2023-03-31T14:04:08.843Z,97729.59
2023-03-31T14:06:41.499Z,97726.88
2023-03-31T14:09:13.600Z,97719.06
2023-03-31T14:11:43.574Z,97713.78
2023-03-31T14:14:16.148Z,97713.63
2023-03-31T14:16:49.632Z,97729.81
2023-03-31T14:19:39.046Z,97724.69
2023-03-31T14:22:19.848Z,97721.47
2023-03-31T14:24:58.978Z,97709.50
2023-03-31T14:27:50.297Z,97720.66
2023-03-31T14:30:30.978Z,97713.94
2023-03-31T14:33:16.869Z,97703.06
2023-03-31T14:35:55.410Z,97709.13
2023-03-31T14:38:24.810Z,97713.44
2023-03-31T14:40:56.401Z,97702.53
2023-03-31T14:43:30.392Z,97696.47
2023-03-31T14:46:00.860Z,97693.91
2023-03-31T14:48:30.922Z,97686.25
2023-03-31T14:51:03.247Z,97682.75
2023-03-31T14:53:31.955Z,97693.63
2023-03-31T14:56:06.844Z,97687.56
2023-03-31T14:58:40.524Z,97697.78
2023-03-31T15:01:11.678Z,97699.41
2023-03-31T15:03:43.224Z,97688.19
2023-03-31T15:06:13.862Z,97689.81
2023-03-31T15:08:42.837Z,97693.97
2023-03-31T15:11:19.496Z,97703.28
2023-03-31T15:14:04.327Z,97695.59
2023-03-31T15:16:42.336Z,97706.63
2023-03-31T15:19:17.874Z,97729.81
2023-03-31T15:21:47.430Z,97706.09
2023-03-31T15:24:16.610Z,97706.09
2023-03-31T15:26:54.135Z,97713.16
2023-03-31T15:29:29.922Z,97720.16
2023-03-31T15:31:59.876Z,97722.06
2023-03-31T15:34:34.306Z,97718.84
2023-03-31T15:37:03.542Z,97744.44
2023-03-31T15:39:34.481Z,97727.50
2023-03-31T15:42:05.603Z,97728.28
2023-03-31T15:44:40.953Z,97727.50
2023-03-31T15:47:20.965Z,97722.38
2023-03-31T15:49:53.883Z,97718.84
2023-03-31T15:52:30.654Z,97716.28
2023-03-31T15:54:59.907Z,97711.97
2023-03-31T15:57:36.981Z,97719.50
2023-03-31T16:00:16.846Z,97706.72
2023-03-31T16:02:47.424Z,97703.34
2023-03-31T16:05:43.744Z,97707.66
2023-03-31T16:08:22.963Z,97706.88
2023-03-31T16:10:59.987Z,97708.59
2023-03-31T16:13:29.520Z,97699.97
2023-03-31T16:16:01.039Z,97699.19
2023-03-31T16:18:34.983Z,97699.97
2023-03-31T16:21:06.800Z,97701.06
2023-03-31T16:23:41.192Z,97697.06
2023-03-31T16:26:10.714Z,97694.50
2023-03-31T16:28:40.232Z,97695.44
2023-03-31T16:31:31.349Z,97704.09
2023-03-31T16:33:59.998Z,97706.66
2023-03-31T16:36:28.846Z,97712.72
2023-03-31T16:38:59.660Z,97705.03
2023-03-31T16:41:30.635Z,97707.59
2023-03-31T16:43:59.350Z,97708.38
2023-03-31T16:46:29.369Z,97695.75
2023-03-31T16:48:58.218Z,97701.69
2023-03-31T16:51:27.070Z,97703.41
2023-03-31T16:53:57.660Z,97701.81
2023-03-31T16:56:28.288Z,97704.25
2023-03-31T16:58:57.413Z,97700.88
2023-03-31T17:01:26.246Z,97701.69
2023-03-31T17:03:56.581Z,97696.56
2023-03-31T17:06:25.497Z,97700.06
2023-03-31T17:08:54.196Z,97700.22
2023-03-31T17:11:24.238Z,97710.63
2023-03-31T17:13:54.713Z,97704.66
2023-03-31T17:19:13.789Z,97712.50
2023-03-31T17:21:42.592Z,97709.16
2023-03-31T17:24:11.447Z,97704.19
2023-03-31T17:26:40.260Z,97711.97
2023-03-31T17:29:09.316Z,97710.38
2023-03-31T17:31:37.926Z,97707.00
2023-03-31T17:34:06.894Z,97719.00
2023-03-31T17:36:36.998Z,97714.84
2023-03-31T17:39:06.164Z,97721.56
2023-03-31T17:41:34.813Z,97724.13
2023-03-31T17:44:04.761Z,97724.13
2023-03-31T17:46:33.415Z,97729.25
2023-03-31T17:49:04.402Z,97734.34
2023-03-31T17:51:34.662Z,97735.44
2023-03-31T17:54:05.210Z,97737.06
2023-03-31T17:56:34.787Z,97739.78
2023-03-31T17:59:04.084Z,97742.44
2023-03-31T18:01:32.882Z,97730.63
2023-03-31T18:04:02.205Z,97731.44
2023-03-31T18:06:31.849Z,97723.91
2023-03-31T18:09:00.783Z,97736.03
2023-03-31T18:11:32.016Z,97737.13
2023-03-31T18:14:02.688Z,97744.13
2023-03-31T18:16:32.082Z,97747.50
2023-03-31T18:19:01.054Z,97754.38
2023-03-31T18:21:30.208Z,97756.94
2023-03-31T18:23:58.864Z,97764.59
2023-03-31T18:26:28.178Z,97774.03
2023-03-31T18:28:59.052Z,97766.53
2023-03-31T18:31:28.038Z,97765.69
2023-03-31T18:33:57.804Z,97764.91
2023-03-31T18:36:28.544Z,97772.56
2023-03-31T18:38:57.672Z,97771.75
2023-03-31T18:41:26.347Z,97771.75
2023-03-31T18:43:55.202Z,97777.84
2023-03-31T18:46:25.240Z,97779.56
2023-03-31T18:48:53.890Z,97770.25
2023-03-31T18:51:22.542Z,97777.13
2023-03-31T18:53:51.278Z,97785.75
2023-03-31T18:56:19.890Z,97788.31
2023-03-31T18:58:48.559Z,97791.84
2023-03-31T19:01:17.278Z,97793.41
2023-03-31T19:03:47.772Z,97791.84
2023-03-31T19:06:17.676Z,97784.28
2023-03-31T19:08:46.435Z,97777.56
2023-03-31T19:11:18.065Z,97770.84
2023-03-31T19:13:46.915Z,97783.63
2023-03-31T19:16:16.015Z,97791.31
2023-03-31T19:18:46.052Z,97788.91
2023-03-31T19:21:14.868Z,97785.50
2023-03-31T19:23:43.473Z,97790.63
2023-03-31T19:26:15.828Z,97799.28
2023-03-31T19:28:44.468Z,97791.75
2023-03-31T19:31:13.223Z,97796.84
2023-03-31T19:33:42.360Z,97799.41
2023-03-31T19:36:12.436Z,97781.63
2023-03-31T19:38:41.271Z,97790.28
2023-03-31T19:41:10.999Z,97790.53
2023-03-31T19:43:39.559Z,97790.53
2023-03-31T19:46:08.271Z,97791.50
2023-03-31T19:48:37.627Z,97782.06
2023-03-31T19:51:08.530Z,97785.72
2023-03-31T19:53:40.898Z,97800.25
2023-03-31T19:56:12.420Z,97794.31
2023-03-31T19:58:41.997Z,97802.00
2023-03-31T20:01:17.893Z,97809.66
2023-03-31T20:03:52.270Z,97792.75
2023-03-31T20:06:23.020Z,97797.84
2023-03-31T20:08:55.871Z,97802.16
2023-03-31T20:11:26.212Z,97799.72
2023-03-31T20:13:55.504Z,97785.47
2023-03-31T20:16:27.567Z,97791.41
2023-03-31T20:18:59.122Z,97793.16
2023-03-31T20:21:30.442Z,97803.38
2023-03-31T20:24:01.015Z,97792.34
2023-03-31T20:26:31.569Z,97805.13
2023-03-31T20:29:02.868Z,97799.09
2023-03-31T20:31:36.628Z,97808.63
2023-03-31T20:34:08.471Z,97801.91
2023-03-31T20:36:37.123Z,97803.66
2023-03-31T20:39:08.004Z,97806.09
2023-03-31T20:41:38.599Z,97800.97
2023-03-31T20:44:12.656Z,97796.78
2023-03-31T20:46:43.758Z,97805.41
2023-03-31T20:49:13.035Z,97807.97
2023-03-31T20:51:42.645Z,97808.94
2023-03-31T20:54:13.359Z,97813.22
2023-03-31T20:56:42.689Z,97814.97
2023-03-31T20:59:14.937Z,97829.38
2023-03-31T21:01:47.184Z,97816.59
2023-03-31T21:04:16.968Z,97825.84
2023-03-31T21:06:48.047Z,97823.44
2023-03-31T21:09:18.445Z,97821.56
2023-03-31T21:11:47.427Z,97826.81
2023-03-31T21:14:17.897Z,97819.81
2023-03-31T21:16:47.049Z,97821.56
2023-03-31T21:19:15.768Z,97818.88
2023-03-31T21:21:44.429Z,97817.25
2023-03-31T21:24:13.503Z,97833.41
2023-03-31T21:26:43.885Z,97825.59
2023-03-31T21:29:12.583Z,97815.38
2023-03-31T21:31:42.169Z,97823.97
2023-03-31T21:34:11.083Z,97817.09
2023-03-31T21:36:39.778Z,97828.94
2023-03-31T21:39:09.744Z,97827.22
2023-03-31T21:41:39.799Z,97816.97
2023-03-31T21:44:10.100Z,97812.81
2023-03-31T21:46:39.592Z,97811.88
2023-03-31T21:49:08.350Z,97822.09
2023-03-31T21:51:37.124Z,97816.97
2023-03-31T21:54:06.844Z,97831.50
2023-03-31T21:56:35.414Z,97816.97
2023-03-31T21:59:04.652Z,97818.56
2023-03-31T22:01:35.927Z,97816.00
2023-03-31T22:04:04.568Z,97815.06
2023-03-31T22:06:34.640Z,97820.34
2023-03-31T22:09:03.426Z,97821.28
2023-03-31T22:11:32.243Z,97815.38
2023-03-31T22:14:01.246Z,97829.88
2023-03-31T22:16:30.161Z,97823.97
2023-03-31T22:19:00.320Z,97806.09
2023-03-31T22:21:43.620Z,97813.91
2023-03-31T22:24:14.504Z,97827.47
2023-03-31T22:26:43.416Z,97829.38
2023-03-31T22:29:16.360Z,97829.09
2023-03-31T22:31:44.971Z,97829.09
2023-03-31T22:34:16.107Z,97830.03
2023-03-31T22:36:44.900Z,97817.25
2023-03-31T22:39:13.664Z,97829.53
2023-03-31T22:41:42.482Z,97826.16
2023-03-31T22:44:11.998Z,97829.63
2023-03-31T22:46:40.768Z,97826.16
2023-03-31T22:49:09.566Z,97830.59
2023-03-31T22:51:40.645Z,97822.94
2023-03-31T22:54:13.354Z,97820.38
2023-03-31T22:56:42.123Z,97818.63
2023-03-31T22:59:11.116Z,97815.41
2023-03-31T23:01:39.731Z,97813.66
2023-03-31T23:04:08.338Z,97815.28
2023-03-31T23:06:38.697Z,97820.38
2023-03-31T23:09:07.281Z,97821.97
2023-03-31T23:11:35.883Z,97811.75
2023-03-31T23:14:04.751Z,97814.31
2023-03-31T23:16:33.718Z,97804.06
2023-03-31T23:19:02.476Z,97810.16
2023-03-31T23:21:31.622Z,97816.22
2023-03-31T23:24:03.919Z,97800.06
2023-03-31T23:26:34.913Z,97811.88
2023-03-31T23:29:04.462Z,97818.75
2023-03-31T23:31:34.983Z,97819.69
2023-03-31T23:34:03.714Z,97799.25
2023-03-31T23:43:35.488Z,97806.28
2023-03-31T23:46:06.652Z,97809.66
2023-03-31T23:48:35.905Z,97804.69
2023-03-31T23:51:05.910Z,97800.38
2023-03-31T23:53:34.856Z,97797.03
2023-03-31T23:56:08.003Z,97804.69
2023-03-31T23:58:37.592Z,97794.47
